Latest Coastal Weather Observations for Low Isles

IDQ60701

Issued at 10:55 am EST Sunday 26 October 2014 (issued every 10 minutes, with the page automatically refreshed every 10 minutes)

About coastal observations | Map of coastal stations | Coastal observations for QLD | Marine services | Other Formats
Station Details ID: 031037 Name: LOW ISLES LIGHTHOUSE Lat: -16.38 Lon: 145.56 Height: 2.9 m
Data from the previous 72 hours. | See also: Recent months at Low Isles
Date/Time
EST
Temp

°C
Wind Pressure Rain
since 9am
mm
Weather Cloud Vis
km
Sea
Height
m
Swell
Dir
 
Speed
knots
Gust
knots
hPa Trend Height
m
Period
s
Dir
26/10:30am 28.1 SE 13 16 1017.3 - 0.0 - - - - - - -
26/10:00am 28.1 ESE 13 15 1017.5 - 0.0 - - - - - - -
26/09:30am 27.3 ESE 12 16 1017.5 - 0.0 - - - - - - -
26/09:00am 27.7 ESE 15 18 1017.3 - 0.0 Haze Partly cloudy 18 - - - -
26/08:30am 27.3 ESE 14 17 1017.2 - 0.0 - - - - - - -
26/08:00am 26.8 ESE 12 16 1017.0 - 0.0 - - - - - - -
26/07:30am 25.6 ESE 12 15 1016.8 - 0.0 - - - - - - -
26/07:00am 24.8 ESE 15 19 1016.5 - 0.0 - - - - - - -
26/06:30am 24.0 SE 13 17 1016.2 - 0.0 - - - - - - -
26/06:00am 23.6 SE 14 16 1015.7 - 0.0 - - - - - - -
26/05:30am 23.2 ESE 12 15 1015.6 - 0.0 - - - - - - -
26/05:00am 23.3 SE 13 15 1015.4 - 0.0 - - - - - - -
26/04:30am 23.4 ESE 14 17 1015.2 - 0.0 - - - - - - -
26/04:00am 23.3 SE 15 17 1015.2 - 0.0 - - - - - - -
26/03:30am 23.5 ESE 14 19 1015.1 - 0.0 - - - - - - -
26/03:00am 23.1 SSE 14 17 1015.1 - 0.0 - - - - - - -
26/02:30am 23.2 SSE 14 17 1015.3 - 0.0 - - - - - - -
26/02:00am 23.4 SSE 15 18 1015.5 - 0.0 - - - - - - -
26/01:30am 23.5 SSE 15 17 1015.8 - 0.0 - - - - - - -
26/01:00am 23.7 S 15 17 1016.0 - 0.0 - - - - - - -
26/12:30am 23.8 S 15 17 1016.4 - 0.0 - - - - - - -
26/12:00am 23.9 SSE 14 16 1016.7 - 0.0 - - - - - - -
 
Date/Time
EST
Temp

°C
Wind Pressure Rain
since 9am
mm
Weather Cloud Vis
km
Sea
Height
m
Swell
Dir
 
Speed
knots
Gust
knots
hPa Trend Height
m
Period
s
Dir
25/11:30pm 24.0 SSE 14 19 1017.2 - 0.0 - - - - - - -
25/11:00pm 24.2 SE 17 20 1017.6 - 0.0 - - - - - - -
25/10:30pm 24.4 SE 16 20 1017.8 - 0.0 - - - - - - -
25/10:00pm 24.4 SE 17 20 1017.9 - 0.0 - - - - - - -
25/09:30pm 24.3 SE 17 19 1017.7 - 0.0 - - - - - - -
25/09:00pm 24.5 SE 15 19 1017.4 - 0.0 - - - - - - -
25/08:30pm 24.5 SE 15 19 1017.4 - 0.0 - - - - - - -
25/08:00pm 24.7 SE 15 19 1017.2 - 0.0 - - - - - - -
25/07:30pm 24.6 SE 14 17 1016.9 - 0.0 - - - - - - -
25/07:00pm 24.8 SE 15 17 1016.8 - 0.0 - - - - - - -
25/06:30pm 24.8 SE 15 18 1016.5 - 0.0 - - - - - - -
25/06:00pm 25.2 SE 16 19 1016.3 - 0.0 - - - - - - -
25/05:30pm 25.6 SE 15 19 1016.1 - 0.0 - - - - - - -
25/05:00pm 26.1 SE 15 17 1015.9 - 0.0 - - - - - - -
25/04:30pm 26.4 SE 15 20 1015.5 - 0.0 - - - - - - -
25/04:00pm 27.1 SE 15 19 1015.4 - 0.0 - - - - - - -
25/03:00pm 27.9 SE 14 - 1015.6 - 0.0 Haze Mostly clear 13 - - - -
25/02:30pm 28.0 SE 14 17 1015.9 - 0.0 - - - - - - -
25/02:00pm 28.0 SE 14 16 1016.1 - 0.0 - - - - - - -
25/01:30pm 28.5 SE 13 16 1016.4 - 0.0 - - - - - - -
25/01:00pm 28.8 SE 14 17 1016.7 - 0.0 - - - - - - -
25/12:30pm 28.9 SE 14 18 1017.2 - 0.0 - - - - - - -
25/12:00pm 28.1 SE 16 19 1017.4 - 0.0 - - - - - - -
25/11:30am 27.5 SE 17 20 1017.9 - 0.0 - - - - - - -
25/11:00am 27.8 SE 17 21 1018.4 - 0.0 - - - - - - -
25/10:30am 27.8 ESE 18 22 1018.6 - 0.0 - - - - - - -
25/10:00am 27.3 ESE 18 22 1018.8 - 0.0 - - - - - - -
25/09:30am 25.7 ESE 18 22 1019.0 - 0.0 - - - - - - -
25/09:00am 25.7 ESE 19 23 1018.9 - 0.0 Distant precip. Mostly cloudy 18 - - - -
25/08:30am 25.7 ESE 18 22 1018.9 - 0.0 - - - - - - -
25/08:00am 25.4 ESE 18 21 1018.6 - 0.0 - - - - - - -
25/07:30am 25.5 ESE 20 25 1018.2 - 0.0 - - - - - - -
25/07:00am 24.4 SE 20 24 1017.6 - 0.0 - - - - - - -
25/06:30am 24.0 SSE 17 20 1017.2 - 0.0 - - - - - - -
25/06:00am 23.8 SSE 16 18 1016.8 - 0.0 - - - - - - -
25/05:30am 23.8 SSE 16 18 1016.6 - 0.0 - - - - - - -
25/05:00am 23.8 SE 19 23 1016.3 - 0.0 - - - - - - -
25/04:30am 23.3 SE 17 19 1016.2 - 0.0 - - - - - - -
25/04:00am 23.5 SE 18 21 1016.2 - 0.0 - - - - - - -
25/03:30am 23.4 SE 17 21 1016.2 - 0.0 - - - - - - -
25/03:00am 23.4 SE 16 20 1016.2 - 0.0 - - - - - - -
25/02:30am 23.5 ESE 16 19 1016.4 - 0.0 - - - - - - -
25/02:00am 23.6 SE 15 19 1016.5 - 0.0 - - - - - - -
25/01:30am 23.8 ESE 15 19 1017.0 - 0.0 - - - - - - -
25/01:00am 23.8 ESE 17 21 1017.2 - 0.0 - - - - - - -
25/12:30am 24.0 ESE 18 21 1017.5 - 0.0 - - - - - - -
25/12:00am 24.1 ESE 17 22 1017.8 - 0.0 - - - - - - -
 
Date/Time
EST
Temp

°C
Wind Pressure Rain
since 9am
mm
Weather Cloud Vis
km
Sea
Height
m
Swell
Dir
 
Speed
knots
Gust
knots
hPa Trend Height
m
Period
s
Dir
24/11:30pm 24.2 ESE 18 23 1018.2 - 0.0 - - - - - - -
24/11:00pm 24.4 ESE 19 23 1018.3 - 0.0 - - - - - - -
24/10:30pm 24.3 ESE 17 22 1018.5 - 0.0 - - - - - - -
24/10:00pm 23.8 SE 19 24 1018.5 - 0.0 - - - - - - -
24/09:30pm 24.6 ESE 18 21 1018.3 - 0.0 - - - - - - -
24/09:00pm 24.5 SE 19 22 1017.8 - 0.0 - - - - - - -
24/08:30pm 24.7 SE 17 21 1017.7 - 0.0 - - - - - - -
24/08:00pm 24.5 SE 18 21 1017.4 - 0.0 - - - - - - -
24/07:30pm 24.6 ESE 17 23 1017.1 - 0.0 - - - - - - -
24/07:00pm 24.6 ESE 18 23 1017.0 - 0.0 - - - - - - -
24/06:30pm 24.8 SE 20 25 1016.7 - 0.0 - - - - - - -
24/06:00pm 25.1 ESE 20 25 1016.3 - 0.0 - - - - - - -
24/05:30pm 25.5 SE 19 24 1016.2 - 0.0 - - - - - - -
24/05:00pm 25.8 ESE 19 24 1015.8 - 0.0 - - - - - - -
24/04:30pm 26.7 SE 18 22 1015.7 - 0.0 - - - - - - -
24/04:00pm 27.2 ESE 18 23 1015.6 - 0.0 - - - - - - -
24/03:30pm 27.1 SE 20 25 1015.7 - 0.0 - - - - - - -
24/03:00pm 27.8 ESE 17 21 1015.8 - 0.0 Haze Mostly clear 12 - - - -
24/02:30pm 28.2 SE 16 21 1016.1 - 0.0 - - - - - - -
24/02:00pm 28.0 SE 15 19 1016.3 - 0.0 - - - - - - -
24/01:30pm 28.0 SE 17 22 1016.6 - 0.0 - - - - - - -
24/01:00pm 28.7 SE 19 23 1017.0 - 0.0 - - - - - - -
24/12:30pm 28.6 SE 17 22 1017.4 - 0.0 - - - - - - -
24/12:00pm 28.6 ESE 17 21 1017.6 - 0.0 - - - - - - -
24/11:30am 28.2 SE 12 18 1018.1 - 0.0 - - - - - - -
24/11:00am 27.4 ESE 19 24 1018.5 - 0.0 - - - - - - -
24/10:30am 27.0 SE 16 19 1018.6 - 0.0 - - - - - - -
24/10:00am 27.9 ESE 14 19 1018.8 - 0.0 - - - - - - -
24/09:30am 27.6 ESE 15 18 1018.8 - 0.0 - - - - - - -
24/09:00am 27.4 ESE 14 18 1018.7 - 1.0 Haze Mostly clear 18 - - - -
24/08:30am 26.3 ESE 16 20 1018.7 - 1.0 - - - - - - -
24/08:00am 25.9 ESE 16 19 1018.5 - 1.0 - - - - - - -
24/07:30am 25.0 ESE 16 21 1018.1 - 1.0 - - - - - - -
24/07:00am 24.5 ESE 17 20 1017.8 - 1.0 - - - - - - -
24/06:30am 24.2 ESE 16 19 1017.4 - 1.0 - - - - - - -
24/06:00am 23.9 ESE 16 19 1017.0 - 1.0 - - - - - - -
24/05:30am 23.7 ESE 16 21 1016.7 - 1.0 - - - - - - -
24/05:00am 23.7 ESE 17 22 1016.5 - 1.0 - - - - - - -
24/04:30am 23.6 ESE 17 21 1016.2 - 1.0 - - - - - - -
24/04:00am 23.5 ESE 17 21 1016.0 - 1.0 - - - - - - -
24/03:30am 23.0 ESE 17 21 1015.9 - 1.0 - - - - - - -
24/03:00am 23.0 ESE 15 18 1015.7 - 1.0 - - - - - - -
24/02:30am 22.4 ESE 17 21 1016.1 - 1.0 - - - - - - -
24/02:10am 23.1 E 25 28 1016.4 - 0.2 - - - - - - -
24/02:08am 23.8 ESE 16 26 1016.4 - 0.2 - - - - - - -
24/02:00am 23.9 ESE 16 20 1016.3 - 0.2 - - - - - - -
24/01:30am 24.0 ESE 17 22 1016.7 - 0.2 - - - - - - -
24/01:00am 24.0 ESE 18 22 1017.0 - 0.2 - - - - - - -
24/12:30am 24.0 SE 19 22 1017.4 - 0.2 - - - - - - -
24/12:00am 24.2 SE 18 22 1017.6 - 0.2 - - - - - - -
 
Date/Time
EST
Temp

°C
Wind Pressure Rain
since 9am
mm
Weather Cloud Vis
km
Sea
Height
m
Swell
Dir
 
Speed
knots
Gust
knots
hPa Trend Height
m
Period
s
Dir
23/11:30pm 24.3 SE 17 20 1018.1 - 0.2 - - - - - - -
23/11:00pm 24.2 SE 19 23 1018.2 - 0.2 - - - - - - -
23/10:30pm 24.2 ESE 17 22 1018.3 - 0.2 - - - - - - -
23/10:00pm 24.3 SE 17 22 1018.4 - 0.2 - - - - - - -
23/09:30pm 24.3 ESE 17 23 1018.2 - 0.2 - - - - - - -
23/09:00pm 24.0 ESE 16 21 1017.9 - 0.2 - - - - - - -
23/08:30pm 24.1 ESE 19 23 1017.7 - 0.2 - - - - - - -
23/08:00pm 23.8 ESE 18 23 1017.4 - 0.2 - - - - - - -
23/07:30pm 24.4 SE 17 20 1017.2 - 0.2 - - - - - - -
23/07:00pm 24.4 SE 16 21 1016.9 - 0.2 - - - - - - -
23/06:30pm 24.5 ESE 17 21 1016.6 - 0.2 - - - - - - -
23/06:00pm 24.5 SE 16 21 1016.1 - 0.2 - - - - - - -
23/05:30pm 25.0 ESE 19 24 1016.0 - 0.2 - - - - - - -
23/05:00pm 25.4 ESE 19 23 1015.6 - 0.2 - - - - - - -
23/04:30pm 25.7 ESE 20 24 1015.3 - 0.2 - - - - - - -
23/04:00pm 26.0 ESE 19 23 1015.1 - 0.2 - - - - - - -
23/03:30pm 26.6 SE 23 27 1015.1 - 0.2 - - - - - - -
23/03:00pm 27.0 ESE 21 27 1015.2 - 0.2 Distant precip. Partly cloudy 10 - - - -
23/02:30pm 27.1 SE 23 28 1015.2 - 0.2 - - - - - - -
23/02:00pm 27.4 SE 21 26 1015.4 - 0.2 - - - - - - -
23/01:30pm 27.3 ESE 16 20 1015.9 - 0.2 - - - - - - -
23/01:00pm 27.8 SE 16 20 1016.2 - 0.2 - - - - - - -
23/12:30pm 27.0 SE 18 22 1016.8 - 0.2 - - - - - - -
23/12:00pm 25.9 ESE 19 26 1017.1 - 0.0 - - - - - - -
23/11:30am 26.0 SE 17 21 1017.6 - 0.0 - - - - - - -
23/11:00am 25.9 E 14 18 1017.8 - 0.0 - - - - - - -

Other Formats:

Comma delimited format used in spreadsheet applications
http://www.bom.gov.au/fwo/IDQ60701/IDQ60701.94285.axf

JavaScript Object Notation format (JSON) in row-major order
http://www.bom.gov.au/fwo/IDQ60701/IDQ60701.94285.json